Terminal Aerodrome Forecast
Issued by NWS

Home | Current Version | Previous Version | Text Only | Print | Product List | Glossary On
Versions: 1 2 3 4 5 6 7 8 9 10 11 12 13 14 15 16 17 18 19 20 21 22 23 24 25 26 27 28
000
FTUS43 KDDC 232321
TAFGCK
TAF
KGCK 232321Z 2400/2424 15019G29KT P6SM BKN090
     FM240300 16014KT P6SM VCTS OVC090CB
     FM240800 17014KT P6SM BKN090
     FM241300 30011KT P6SM FEW150
     FM242300 04006KT P6SM FEW150=

USA.gov is the U.S. government's official web portal to all federal, state and local government web resources and services.